sensor_id;sensor_type;location;lat;lon;timestamp;temperature;humidity
3758;DHT22;1894;51.038;13.692;2023-03-23T00:02:15;13.90;91.70
3758;DHT22;1894;51.038;13.692;2023-03-23T00:04:41;13.90;91.50
3758;DHT22;1894;51.038;13.692;2023-03-23T00:07:08;13.90;91.40
3758;DHT22;1894;51.038;13.692;2023-03-23T00:09:34;13.90;91.30
3758;DHT22;1894;51.038;13.692;2023-03-23T00:12:07;14.00;91.10
3758;DHT22;1894;51.038;13.692;2023-03-23T00:14:33;14.00;90.70
3758;DHT22;1894;51.038;13.692;2023-03-23T00:17:10;14.10;90.70
3758;DHT22;1894;51.038;13.692;2023-03-23T00:19:37;14.10;90.70
3758;DHT22;1894;51.038;13.692;2023-03-23T00:22:14;14.20;90.50
3758;DHT22;1894;51.038;13.692;2023-03-23T00:24:43;14.20;90.30
3758;DHT22;1894;51.038;13.692;2023-03-23T00:27:10;14.20;90.30
3758;DHT22;1894;51.038;13.692;2023-03-23T00:29:39;14.20;90.10
3758;DHT22;1894;51.038;13.692;2023-03-23T00:32:07;14.30;89.90
3758;DHT22;1894;51.038;13.692;2023-03-23T00:34:38;14.30;89.50
3758;DHT22;1894;51.038;13.692;2023-03-23T00:37:06;14.20;90.00
3758;DHT22;1894;51.038;13.692;2023-03-23T00:39:33;14.30;89.20
3758;DHT22;1894;51.038;13.692;2023-03-23T00:42:02;14.30;89.30
3758;DHT22;1894;51.038;13.692;2023-03-23T00:44:33;14.30;89.00
3758;DHT22;1894;51.038;13.692;2023-03-23T00:47:01;14.30;89.20
3758;DHT22;1894;51.038;13.692;2023-03-23T00:49:30;14.30;89.00
3758;DHT22;1894;51.038;13.692;2023-03-23T00:52:01;14.30;88.70
3758;DHT22;1894;51.038;13.692;2023-03-23T00:54:28;14.30;88.60
3758;DHT22;1894;51.038;13.692;2023-03-23T00:56:54;14.30;88.90
3758;DHT22;1894;51.038;13.692;2023-03-23T00:59:21;14.30;88.90
3758;DHT22;1894;51.038;13.692;2023-03-23T01:01:48;14.30;88.60
3758;DHT22;1894;51.038;13.692;2023-03-23T01:04:15;14.30;88.90
3758;DHT22;1894;51.038;13.692;2023-03-23T01:06:43;14.20;88.10
3758;DHT22;1894;51.038;13.692;2023-03-23T01:09:13;14.30;87.80
3758;DHT22;1894;51.038;13.692;2023-03-23T01:11:46;14.20;87.70
3758;DHT22;1894;51.038;13.692;2023-03-23T01:14:16;14.20;87.70
3758;DHT22;1894;51.038;13.692;2023-03-23T01:16:43;14.20;88.30
3758;DHT22;1894;51.038;13.692;2023-03-23T01:19:09;14.10;87.80
3758;DHT22;1894;51.038;13.692;2023-03-23T01:21:35;14.10;87.70
3758;DHT22;1894;51.038;13.692;2023-03-23T01:24:02;14.10;87.70
3758;DHT22;1894;51.038;13.692;2023-03-23T01:26:28;14.10;87.50
3758;DHT22;1894;51.038;13.692;2023-03-23T01:28:55;14.10;87.30
3758;DHT22;1894;51.038;13.692;2023-03-23T01:31:25;14.10;86.40
3758;DHT22;1894;51.038;13.692;2023-03-23T01:33:52;14.10;87.20
3758;DHT22;1894;51.038;13.692;2023-03-23T01:36:26;14.00;86.60
3758;DHT22;1894;51.038;13.692;2023-03-23T01:39:03;14.00;86.50
3758;DHT22;1894;51.038;13.692;2023-03-23T01:41:32;14.00;87.50
3758;DHT22;1894;51.038;13.692;2023-03-23T01:44:04;13.90;87.30
3758;DHT22;1894;51.038;13.692;2023-03-23T01:46:40;13.90;86.30
3758;DHT22;1894;51.038;13.692;2023-03-23T01:49:16;13.90;85.90
3758;DHT22;1894;51.038;13.692;2023-03-23T01:51:52;13.90;86.30
3758;DHT22;1894;51.038;13.692;2023-03-23T01:54:23;13.90;86.60
3758;DHT22;1894;51.038;13.692;2023-03-23T01:56:54;14.00;84.80
3758;DHT22;1894;51.038;13.692;2023-03-23T01:59:26;14.00;85.80
3758;DHT22;1894;51.038;13.692;2023-03-23T02:02:16;14.00;86.10
3758;DHT22;1894;51.038;13.692;2023-03-23T02:04:45;14.00;86.00
3758;DHT22;1894;51.038;13.692;2023-03-23T02:07:13;14.00;85.70
3758;DHT22;1894;51.038;13.692;2023-03-23T02:09:40;14.00;84.80
3758;DHT22;1894;51.038;13.692;2023-03-23T02:12:06;14.20;84.30
3758;DHT22;1894;51.038;13.692;2023-03-23T02:14:34;14.30;83.80
3758;DHT22;1894;51.038;13.692;2023-03-23T02:25:42;14.30;83.50
3758;DHT22;1894;51.038;13.692;2023-03-23T02:34:30;14.30;83.70
3758;DHT22;1894;51.038;13.692;2023-03-23T02:37:58;14.20;83.20
3758;DHT22;1894;51.038;13.692;2023-03-23T02:40:21;14.20;83.80
3758;DHT22;1894;51.038;13.692;2023-03-23T02:42:54;14.10;84.40
3758;DHT22;1894;51.038;13.692;2023-03-23T02:45:24;14.00;84.70
3758;DHT22;1894;51.038;13.692;2023-03-23T02:47:53;13.90;85.10
3758;DHT22;1894;51.038;13.692;2023-03-23T02:50:23;13.90;85.00
3758;DHT22;1894;51.038;13.692;2023-03-23T02:52:52;13.80;85.10
3758;DHT22;1894;51.038;13.692;2023-03-23T02:55:19;13.70;85.30
3758;DHT22;1894;51.038;13.692;2023-03-23T02:57:51;13.70;85.70
3758;DHT22;1894;51.038;13.692;2023-03-23T03:00:18;13.60;85.10
3758;DHT22;1894;51.038;13.692;2023-03-23T03:02:48;13.60;85.70
3758;DHT22;1894;51.038;13.692;2023-03-23T03:05:32;13.50;85.60
3758;DHT22;1894;51.038;13.692;2023-03-23T03:11:08;13.40;86.10
3758;DHT22;1894;51.038;13.692;2023-03-23T03:19:30;13.30;86.00
3758;DHT22;1894;51.038;13.692;2023-03-23T03:21:59;13.40;85.70
3758;DHT22;1894;51.038;13.692;2023-03-23T03:24:38;13.50;86.10
3758;DHT22;1894;51.038;13.692;2023-03-23T03:27:12;13.60;86.50
3758;DHT22;1894;51.038;13.692;2023-03-23T03:30:07;13.60;86.10
3758;DHT22;1894;51.038;13.692;2023-03-23T03:32:44;13.80;85.30
3758;DHT22;1894;51.038;13.692;2023-03-23T03:35:13;13.80;85.10
3758;DHT22;1894;51.038;13.692;2023-03-23T03:37:40;13.90;85.00
3758;DHT22;1894;51.038;13.692;2023-03-23T03:40:10;13.90;85.00
3758;DHT22;1894;51.038;13.692;2023-03-23T03:42:41;14.00;85.20
3758;DHT22;1894;51.038;13.692;2023-03-23T03:45:11;14.20;84.70
3758;DHT22;1894;51.038;13.692;2023-03-23T03:47:40;14.20;84.50
3758;DHT22;1894;51.038;13.692;2023-03-23T03:50:07;14.20;84.60
3758;DHT22;1894;51.038;13.692;2023-03-23T03:52:34;14.30;85.40
3758;DHT22;1894;51.038;13.692;2023-03-23T03:55:00;14.30;85.20
3758;DHT22;1894;51.038;13.692;2023-03-23T03:57:28;14.50;84.00
3758;DHT22;1894;51.038;13.692;2023-03-23T03:59:57;14.50;84.70
3758;DHT22;1894;51.038;13.692;2023-03-23T04:02:42;14.50;84.50
3758;DHT22;1894;51.038;13.692;2023-03-23T04:05:15;14.50;84.70
3758;DHT22;1894;51.038;13.692;2023-03-23T04:07:43;14.40;85.20
3758;DHT22;1894;51.038;13.692;2023-03-23T04:10:10;14.40;85.30
3758;DHT22;1894;51.038;13.692;2023-03-23T04:12:41;14.30;85.80
3758;DHT22;1894;51.038;13.692;2023-03-23T04:15:40;14.30;85.50
3758;DHT22;1894;51.038;13.692;2023-03-23T04:18:06;14.30;86.00
3758;DHT22;1894;51.038;13.692;2023-03-23T04:20:33;14.30;86.20
3758;DHT22;1894;51.038;13.692;2023-03-23T04:23:01;14.20;86.40
3758;DHT22;1894;51.038;13.692;2023-03-23T04:25:37;14.30;86.80
3758;DHT22;1894;51.038;13.692;2023-03-23T04:28:05;14.30;87.90
3758;DHT22;1894;51.038;13.692;2023-03-23T04:30:39;14.30;87.10
3758;DHT22;1894;51.038;13.692;2023-03-23T04:33:11;14.30;87.10
3758;DHT22;1894;51.038;13.692;2023-03-23T04:35:46;14.20;87.90
3758;DHT22;1894;51.038;13.692;2023-03-23T04:38:32;14.20;88.20
3758;DHT22;1894;51.038;13.692;2023-03-23T04:41:07;14.20;88.50
3758;DHT22;1894;51.038;13.692;2023-03-23T04:43:51;14.10;88.80
3758;DHT22;1894;51.038;13.692;2023-03-23T04:46:29;14.10;88.60
3758;DHT22;1894;51.038;13.692;2023-03-23T04:49:00;14.10;89.20
3758;DHT22;1894;51.038;13.692;2023-03-23T04:51:32;14.10;89.00
3758;DHT22;1894;51.038;13.692;2023-03-23T04:54:10;14.10;89.40
3758;DHT22;1894;51.038;13.692;2023-03-23T04:56:38;13.90;90.00
3758;DHT22;1894;51.038;13.692;2023-03-23T04:59:10;13.90;90.20
3758;DHT22;1894;51.038;13.692;2023-03-23T05:02:04;13.80;90.50
3758;DHT22;1894;51.038;13.692;2023-03-23T05:04:31;13.80;90.80
3758;DHT22;1894;51.038;13.692;2023-03-23T05:07:07;13.80;91.80
3758;DHT22;1894;51.038;13.692;2023-03-23T05:09:40;13.80;91.40
3758;DHT22;1894;51.038;13.692;2023-03-23T05:12:09;13.70;91.70
3758;DHT22;1894;51.038;13.692;2023-03-23T05:14:46;13.70;91.70
3758;DHT22;1894;51.038;13.692;2023-03-23T05:17:15;13.80;91.70
3758;DHT22;1894;51.038;13.692;2023-03-23T05:19:44;13.80;91.80
3758;DHT22;1894;51.038;13.692;2023-03-23T05:22:31;13.70;91.80
3758;DHT22;1894;51.038;13.692;2023-03-23T05:25:00;13.80;91.70
3758;DHT22;1894;51.038;13.692;2023-03-23T05:27:31;13.70;91.80
3758;DHT22;1894;51.038;13.692;2023-03-23T05:30:03;13.70;92.30
3758;DHT22;1894;51.038;13.692;2023-03-23T05:32:32;13.70;92.00
3758;DHT22;1894;51.038;13.692;2023-03-23T05:35:17;13.70;92.30
3758;DHT22;1894;51.038;13.692;2023-03-23T05:37:45;13.80;92.10
3758;DHT22;1894;51.038;13.692;2023-03-23T05:40:12;13.70;91.90
3758;DHT22;1894;51.038;13.692;2023-03-23T05:42:43;13.70;91.90
3758;DHT22;1894;51.038;13.692;2023-03-23T05:45:15;13.70;92.10
3758;DHT22;1894;51.038;13.692;2023-03-23T05:47:43;13.80;91.90
3758;DHT22;1894;51.038;13.692;2023-03-23T05:50:16;13.80;91.40
3758;DHT22;1894;51.038;13.692;2023-03-23T05:52:43;13.90;91.90
3758;DHT22;1894;51.038;13.692;2023-03-23T05:55:12;13.90;91.40
3758;DHT22;1894;51.038;13.692;2023-03-23T05:57:42;14.00;91.00
3758;DHT22;1894;51.038;13.692;2023-03-23T06:00:21;14.10;90.90
3758;DHT22;1894;51.038;13.692;2023-03-23T06:02:56;14.20;89.80
3758;DHT22;1894;51.038;13.692;2023-03-23T06:05:35;14.20;90.10
3758;DHT22;1894;51.038;13.692;2023-03-23T06:08:01;14.40;88.90
3758;DHT22;1894;51.038;13.692;2023-03-23T06:10:28;14.50;88.50
3758;DHT22;1894;51.038;13.692;2023-03-23T06:13:00;14.50;88.10
3758;DHT22;1894;51.038;13.692;2023-03-23T06:15:46;14.60;87.70
3758;DHT22;1894;51.038;13.692;2023-03-23T06:18:13;14.70;87.10
3758;DHT22;1894;51.038;13.692;2023-03-23T06:20:59;14.80;86.50
3758;DHT22;1894;51.038;13.692;2023-03-23T06:23:41;14.90;85.90
3758;DHT22;1894;51.038;13.692;2023-03-23T06:26:11;15.00;85.50
3758;DHT22;1894;51.038;13.692;2023-03-23T06:28:38;15.10;85.10
3758;DHT22;1894;51.038;13.692;2023-03-23T06:31:06;15.20;84.20
3758;DHT22;1894;51.038;13.692;2023-03-23T06:33:35;15.30;84.60
3758;DHT22;1894;51.038;13.692;2023-03-23T06:36:24;15.30;84.60
3758;DHT22;1894;51.038;13.692;2023-03-23T06:39:08;15.40;84.20
3758;DHT22;1894;51.038;13.692;2023-03-23T06:42:01;15.40;84.20
3758;DHT22;1894;51.038;13.692;2023-03-23T06:44:31;15.50;84.90
3758;DHT22;1894;51.038;13.692;2023-03-23T06:46:58;15.60;84.40
3758;DHT22;1894;51.038;13.692;2023-03-23T06:49:29;15.60;84.20
3758;DHT22;1894;51.038;13.692;2023-03-23T06:52:20;15.50;84.50
3758;DHT22;1894;51.038;13.692;2023-03-23T06:54:50;15.50;84.40
3758;DHT22;1894;51.038;13.692;2023-03-23T06:57:18;15.60;84.80
3758;DHT22;1894;51.038;13.692;2023-03-23T06:59:46;15.60;84.70
3758;DHT22;1894;51.038;13.692;2023-03-23T07:02:13;15.70;84.60
3758;DHT22;1894;51.038;13.692;2023-03-23T07:04:41;15.80;84.20
3758;DHT22;1894;51.038;13.692;2023-03-23T07:07:14;15.80;85.20
3758;DHT22;1894;51.038;13.692;2023-03-23T07:10:04;16.00;84.10
3758;DHT22;1894;51.038;13.692;2023-03-23T07:12:31;16.00;83.80
3758;DHT22;1894;51.038;13.692;2023-03-23T07:14:59;16.00;83.80
3758;DHT22;1894;51.038;13.692;2023-03-23T07:17:27;16.10;83.40
3758;DHT22;1894;51.038;13.692;2023-03-23T07:20:14;16.00;83.50
3758;DHT22;1894;51.038;13.692;2023-03-23T07:22:41;16.20;83.50
3758;DHT22;1894;51.038;13.692;2023-03-23T07:25:19;16.40;83.30
3758;DHT22;1894;51.038;13.692;2023-03-23T07:27:52;16.40;83.10
3758;DHT22;1894;51.038;13.692;2023-03-23T07:30:18;16.40;83.70
3758;DHT22;1894;51.038;13.692;2023-03-23T07:32:45;16.50;83.10
3758;DHT22;1894;51.038;13.692;2023-03-23T07:35:12;16.50;83.20
3758;DHT22;1894;51.038;13.692;2023-03-23T07:37:49;16.70;83.20
3758;DHT22;1894;51.038;13.692;2023-03-23T07:40:16;16.80;82.70
3758;DHT22;1894;51.038;13.692;2023-03-23T07:42:53;16.80;82.60
3758;DHT22;1894;51.038;13.692;2023-03-23T07:45:35;16.80;82.90
3758;DHT22;1894;51.038;13.692;2023-03-23T07:48:02;16.70;82.60
3758;DHT22;1894;51.038;13.692;2023-03-23T07:50:29;16.70;82.60
3758;DHT22;1894;51.038;13.692;2023-03-23T07:52:57;16.70;83.50
3758;DHT22;1894;51.038;13.692;2023-03-23T07:55:25;16.70;82.60
3758;DHT22;1894;51.038;13.692;2023-03-23T07:58:19;16.80;83.10
3758;DHT22;1894;51.038;13.692;2023-03-23T08:00:50;16.70;83.20
3758;DHT22;1894;51.038;13.692;2023-03-23T08:03:19;16.90;83.10
3758;DHT22;1894;51.038;13.692;2023-03-23T08:05:51;16.90;83.50
3758;DHT22;1894;51.038;13.692;2023-03-23T08:08:36;17.10;82.90
3758;DHT22;1894;51.038;13.692;2023-03-23T08:11:26;16.80;82.80
3758;DHT22;1894;51.038;13.692;2023-03-23T08:14:11;16.70;83.50
3758;DHT22;1894;51.038;13.692;2023-03-23T08:17:06;16.60;83.20
3758;DHT22;1894;51.038;13.692;2023-03-23T08:19:40;16.60;84.70
3758;DHT22;1894;51.038;13.692;2023-03-23T08:22:20;16.50;84.20
3758;DHT22;1894;51.038;13.692;2023-03-23T08:25:06;16.60;84.30
3758;DHT22;1894;51.038;13.692;2023-03-23T08:27:53;16.40;84.30
3758;DHT22;1894;51.038;13.692;2023-03-23T08:30:43;16.30;85.00
3758;DHT22;1894;51.038;13.692;2023-03-23T08:33:32;16.50;85.00
3758;DHT22;1894;51.038;13.692;2023-03-23T08:36:35;16.30;85.10
3758;DHT22;1894;51.038;13.692;2023-03-23T08:39:15;16.30;85.00
3758;DHT22;1894;51.038;13.692;2023-03-23T08:41:58;16.10;85.20
3758;DHT22;1894;51.038;13.692;2023-03-23T08:44:43;16.20;85.50
3758;DHT22;1894;51.038;13.692;2023-03-23T08:47:30;16.30;85.60
3758;DHT22;1894;51.038;13.692;2023-03-23T08:50:29;16.30;86.00
3758;DHT22;1894;51.038;13.692;2023-03-23T08:53:12;16.20;86.10
3758;DHT22;1894;51.038;13.692;2023-03-23T08:55:38;16.40;86.50
3758;DHT22;1894;51.038;13.692;2023-03-23T08:58:23;16.30;86.80
3758;DHT22;1894;51.038;13.692;2023-03-23T09:00:59;16.30;87.90
3758;DHT22;1894;51.038;13.692;2023-03-23T09:03:44;16.20;88.10
3758;DHT22;1894;51.038;13.692;2023-03-23T09:06:29;16.20;88.20
3758;DHT22;1894;51.038;13.692;2023-03-23T09:08:55;16.30;88.40
3758;DHT22;1894;51.038;13.692;2023-03-23T09:11:22;16.30;88.70
3758;DHT22;1894;51.038;13.692;2023-03-23T09:13:48;16.30;89.10
3758;DHT22;1894;51.038;13.692;2023-03-23T09:16:14;16.60;89.50
3758;DHT22;1894;51.038;13.692;2023-03-23T09:18:40;16.90;89.10
3758;DHT22;1894;51.038;13.692;2023-03-23T09:21:06;16.90;89.60
3758;DHT22;1894;51.038;13.692;2023-03-23T09:23:33;16.80;90.00
3758;DHT22;1894;51.038;13.692;2023-03-23T09:26:01;16.40;90.50
3758;DHT22;1894;51.038;13.692;2023-03-23T09:28:28;16.30;90.90
3758;DHT22;1894;51.038;13.692;2023-03-23T09:30:55;16.30;91.40
3758;DHT22;1894;51.038;13.692;2023-03-23T09:33:25;16.20;91.80
3758;DHT22;1894;51.038;13.692;2023-03-23T09:35:51;16.00;92.20
3758;DHT22;1894;51.038;13.692;2023-03-23T09:38:17;15.90;92.60
3758;DHT22;1894;51.038;13.692;2023-03-23T09:40:47;15.80;93.70
3758;DHT22;1894;51.038;13.692;2023-03-23T09:43:35;15.80;94.60
3758;DHT22;1894;51.038;13.692;2023-03-23T09:46:28;15.70;94.40
3758;DHT22;1894;51.038;13.692;2023-03-23T09:49:07;15.40;94.60
3758;DHT22;1894;51.038;13.692;2023-03-23T09:51:56;15.50;95.50
3758;DHT22;1894;51.038;13.692;2023-03-23T09:56:55;15.70;95.50
3758;DHT22;1894;51.038;13.692;2023-03-23T09:59:47;15.50;96.30
3758;DHT22;1894;51.038;13.692;2023-03-23T10:02:41;15.70;95.10
3758;DHT22;1894;51.038;13.692;2023-03-23T10:05:40;15.70;95.10
3758;DHT22;1894;51.038;13.692;2023-03-23T10:08:20;15.60;95.00
3758;DHT22;1894;51.038;13.692;2023-03-23T10:13:32;15.80;95.30
3758;DHT22;1894;51.038;13.692;2023-03-23T10:17:09;15.80;95.30
3758;DHT22;1894;51.038;13.692;2023-03-23T10:19:52;15.80;95.10
3758;DHT22;1894;51.038;13.692;2023-03-23T10:22:32;15.90;94.90
3758;DHT22;1894;51.038;13.692;2023-03-23T10:28:11;16.10;94.70
3758;DHT22;1894;51.038;13.692;2023-03-23T10:30:56;16.20;93.80
3758;DHT22;1894;51.038;13.692;2023-03-23T10:33:47;16.30;93.90
3758;DHT22;1894;51.038;13.692;2023-03-23T10:36:34;16.40;94.30
3758;DHT22;1894;51.038;13.692;2023-03-23T10:39:16;16.40;93.80
3758;DHT22;1894;51.038;13.692;2023-03-23T10:41:44;16.50;94.10
3758;DHT22;1894;51.038;13.692;2023-03-23T10:44:18;16.40;93.70
3758;DHT22;1894;51.038;13.692;2023-03-23T10:47:00;16.50;93.30
3758;DHT22;1894;51.038;13.692;2023-03-23T10:49:43;16.50;93.40
3758;DHT22;1894;51.038;13.692;2023-03-23T10:52:38;16.70;93.10
3758;DHT22;1894;51.038;13.692;2023-03-23T10:55:20;16.60;93.70
3758;DHT22;1894;51.038;13.692;2023-03-23T10:58:10;16.70;93.90
3758;DHT22;1894;51.038;13.692;2023-03-23T11:00:46;16.70;93.60
3758;DHT22;1894;51.038;13.692;2023-03-23T11:05:49;16.60;93.80
3758;DHT22;1894;51.038;13.692;2023-03-23T11:08:28;16.60;94.00
3758;DHT22;1894;51.038;13.692;2023-03-23T11:11:36;16.60;93.30
3758;DHT22;1894;51.038;13.692;2023-03-23T11:14:19;16.50;93.60
3758;DHT22;1894;51.038;13.692;2023-03-23T11:17:18;16.70;93.40
3758;DHT22;1894;51.038;13.692;2023-03-23T11:19:46;16.40;93.30
3758;DHT22;1894;51.038;13.692;2023-03-23T11:22:27;16.50;93.20
3758;DHT22;1894;51.038;13.692;2023-03-23T11:25:03;16.40;93.10
3758;DHT22;1894;51.038;13.692;2023-03-23T11:27:31;16.30;93.20
3758;DHT22;1894;51.038;13.692;2023-03-23T11:30:11;16.10;93.30
3758;DHT22;1894;51.038;13.692;2023-03-23T11:32:43;16.30;93.80
3758;DHT22;1894;51.038;13.692;2023-03-23T11:35:27;16.10;93.80
3758;DHT22;1894;51.038;13.692;2023-03-23T11:37:56;16.10;93.60
3758;DHT22;1894;51.038;13.692;2023-03-23T11:40:31;16.10;93.70
3758;DHT22;1894;51.038;13.692;2023-03-23T11:43:08;16.30;93.80
3758;DHT22;1894;51.038;13.692;2023-03-23T11:45:40;16.30;93.60
3758;DHT22;1894;51.038;13.692;2023-03-23T11:48:38;16.50;93.70
3758;DHT22;1894;51.038;13.692;2023-03-23T11:54:00;16.50;94.70
3758;DHT22;1894;51.038;13.692;2023-03-23T11:56:35;16.40;95.30
3758;DHT22;1894;51.038;13.692;2023-03-23T11:59:12;16.30;95.70
3758;DHT22;1894;51.038;13.692;2023-03-23T12:08:23;15.80;97.50
3758;DHT22;1894;51.038;13.692;2023-03-23T12:11:17;15.80;96.90
3758;DHT22;1894;51.038;13.692;2023-03-23T12:17:02;16.10;97.50
3758;DHT22;1894;51.038;13.692;2023-03-23T12:23:11;15.90;98.30
3758;DHT22;1894;51.038;13.692;2023-03-23T12:25:54;16.20;98.30
3758;DHT22;1894;51.038;13.692;2023-03-23T12:42:59;16.20;97.60
3758;DHT22;1894;51.038;13.692;2023-03-23T12:46:05;16.30;96.80
3758;DHT22;1894;51.038;13.692;2023-03-23T12:48:39;16.30;96.80
3758;DHT22;1894;51.038;13.692;2023-03-23T12:51:27;16.00;96.80
3758;DHT22;1894;51.038;13.692;2023-03-23T12:59:41;16.30;95.90
3758;DHT22;1894;51.038;13.692;2023-03-23T13:02:32;16.50;95.90
3758;DHT22;1894;51.038;13.692;2023-03-23T13:07:42;17.40;94.70
3758;DHT22;1894;51.038;13.692;2023-03-23T13:12:47;17.60;94.70
3758;DHT22;1894;51.038;13.692;2023-03-23T13:15:41;18.00;94.40
3758;DHT22;1894;51.038;13.692;2023-03-23T13:18:40;18.60;93.20
3758;DHT22;1894;51.038;13.692;2023-03-23T13:21:21;18.20;93.20
3758;DHT22;1894;51.038;13.692;2023-03-23T13:26:27;19.20;91.70
3758;DHT22;1894;51.038;13.692;2023-03-23T13:28:57;18.70;92.50
3758;DHT22;1894;51.038;13.692;2023-03-23T13:31:34;18.00;91.90
3758;DHT22;1894;51.038;13.692;2023-03-23T13:37:25;18.40;92.00
3758;DHT22;1894;51.038;13.692;2023-03-23T13:40:11;18.30;90.80
3758;DHT22;1894;51.038;13.692;2023-03-23T13:42:55;17.60;91.30
3758;DHT22;1894;51.038;13.692;2023-03-23T13:48:23;17.50;91.70
3758;DHT22;1894;51.038;13.692;2023-03-23T13:50:56;17.20;91.60
3758;DHT22;1894;51.038;13.692;2023-03-23T13:53:28;17.30;92.00
3758;DHT22;1894;51.038;13.692;2023-03-23T13:56:40;17.20;91.70
3758;DHT22;1894;51.038;13.692;2023-03-23T13:59:28;17.30;91.90
3758;DHT22;1894;51.038;13.692;2023-03-23T14:02:40;17.70;91.60
3758;DHT22;1894;51.038;13.692;2023-03-23T14:10:38;22.00;84.90
3758;DHT22;1894;51.038;13.692;2023-03-23T14:13:15;23.00;80.30
3758;DHT22;1894;51.038;13.692;2023-03-23T14:15:59;21.40;82.00
3758;DHT22;1894;51.038;13.692;2023-03-23T14:18:38;22.40;81.60
3758;DHT22;1894;51.038;13.692;2023-03-23T14:21:06;21.90;81.30
3758;DHT22;1894;51.038;13.692;2023-03-23T14:23:40;21.90;80.50
3758;DHT22;1894;51.038;13.692;2023-03-23T14:26:11;22.80;80.00
3758;DHT22;1894;51.038;13.692;2023-03-23T14:28:44;22.40;79.50
3758;DHT22;1894;51.038;13.692;2023-03-23T14:31:22;23.50;78.60
3758;DHT22;1894;51.038;13.692;2023-03-23T14:33:51;22.60;79.00
3758;DHT22;1894;51.038;13.692;2023-03-23T14:36:26;22.20;80.70
3758;DHT22;1894;51.038;13.692;2023-03-23T14:39:26;21.20;79.30
3758;DHT22;1894;51.038;13.692;2023-03-23T14:41:55;21.00;81.20
3758;DHT22;1894;51.038;13.692;2023-03-23T14:44:26;19.90;82.50
3758;DHT22;1894;51.038;13.692;2023-03-23T14:46:56;20.00;84.30
3758;DHT22;1894;51.038;13.692;2023-03-23T14:49:40;19.80;84.40
3758;DHT22;1894;51.038;13.692;2023-03-23T14:52:13;18.80;85.20
3758;DHT22;1894;51.038;13.692;2023-03-23T14:54:41;18.40;87.20
3758;DHT22;1894;51.038;13.692;2023-03-23T14:57:26;17.80;88.20
3758;DHT22;1894;51.038;13.692;2023-03-23T14:59:55;17.80;89.30
3758;DHT22;1894;51.038;13.692;2023-03-23T15:02:33;17.90;89.30
3758;DHT22;1894;51.038;13.692;2023-03-23T15:05:19;18.30;89.10
3758;DHT22;1894;51.038;13.692;2023-03-23T15:07:51;18.10;89.70
3758;DHT22;1894;51.038;13.692;2023-03-23T15:10:22;18.50;88.50
3758;DHT22;1894;51.038;13.692;2023-03-23T15:12:49;18.30;88.20
3758;DHT22;1894;51.038;13.692;2023-03-23T15:15:33;17.80;89.40
3758;DHT22;1894;51.038;13.692;2023-03-23T15:18:01;17.70;90.20
3758;DHT22;1894;51.038;13.692;2023-03-23T15:20:49;17.60;89.50
3758;DHT22;1894;51.038;13.692;2023-03-23T15:23:17;17.70;90.00
3758;DHT22;1894;51.038;13.692;2023-03-23T15:25:52;17.60;90.00
3758;DHT22;1894;51.038;13.692;2023-03-23T15:28:22;17.70;90.20
3758;DHT22;1894;51.038;13.692;2023-03-23T15:30:57;17.30;90.60
3758;DHT22;1894;51.038;13.692;2023-03-23T15:33:25;17.40;90.30
3758;DHT22;1894;51.038;13.692;2023-03-23T15:35:56;17.30;90.60
3758;DHT22;1894;51.038;13.692;2023-03-23T15:38:33;17.30;90.50
3758;DHT22;1894;51.038;13.692;2023-03-23T15:41:04;17.10;90.70
3758;DHT22;1894;51.038;13.692;2023-03-23T15:43:34;16.90;90.80
3758;DHT22;1894;51.038;13.692;2023-03-23T15:46:03;16.70;90.60
3758;DHT22;1894;51.038;13.692;2023-03-23T15:51:17;16.50;91.00
3758;DHT22;1894;51.038;13.692;2023-03-23T15:53:45;16.50;91.20
3758;DHT22;1894;51.038;13.692;2023-03-23T15:56:13;16.60;91.20
3758;DHT22;1894;51.038;13.692;2023-03-23T15:58:39;16.50;91.00
3758;DHT22;1894;51.038;13.692;2023-03-23T16:01:16;16.60;91.10
3758;DHT22;1894;51.038;13.692;2023-03-23T16:03:51;16.70;91.10
3758;DHT22;1894;51.038;13.692;2023-03-23T16:06:22;16.50;91.10
3758;DHT22;1894;51.038;13.692;2023-03-23T16:08:55;16.40;91.20
3758;DHT22;1894;51.038;13.692;2023-03-23T16:11:25;16.40;91.30
3758;DHT22;1894;51.038;13.692;2023-03-23T16:13:54;16.30;91.50
3758;DHT22;1894;51.038;13.692;2023-03-23T16:16:27;16.30;91.50
3758;DHT22;1894;51.038;13.692;2023-03-23T16:19:02;16.20;91.50
3758;DHT22;1894;51.038;13.692;2023-03-23T16:21:31;16.10;91.40
3758;DHT22;1894;51.038;13.692;2023-03-23T16:23:58;16.10;91.30
3758;DHT22;1894;51.038;13.692;2023-03-23T16:26:25;16.10;91.30
3758;DHT22;1894;51.038;13.692;2023-03-23T16:28:52;16.10;91.40
3758;DHT22;1894;51.038;13.692;2023-03-23T16:31:35;16.30;91.40
3758;DHT22;1894;51.038;13.692;2023-03-23T16:34:02;16.30;91.30
3758;DHT22;1894;51.038;13.692;2023-03-23T16:36:30;16.10;91.30
3758;DHT22;1894;51.038;13.692;2023-03-23T16:38:57;16.00;91.40
3758;DHT22;1894;51.038;13.692;2023-03-23T16:41:24;15.90;91.70
3758;DHT22;1894;51.038;13.692;2023-03-23T16:43:51;15.80;92.20
3758;DHT22;1894;51.038;13.692;2023-03-23T16:46:18;15.70;92.10
3758;DHT22;1894;51.038;13.692;2023-03-23T16:48:45;15.60;92.50
3758;DHT22;1894;51.038;13.692;2023-03-23T16:51:13;15.60;92.70
3758;DHT22;1894;51.038;13.692;2023-03-23T16:53:40;15.60;93.00
3758;DHT22;1894;51.038;13.692;2023-03-23T16:56:07;15.50;93.40
3758;DHT22;1894;51.038;13.692;2023-03-23T16:58:34;15.40;93.80
3758;DHT22;1894;51.038;13.692;2023-03-23T17:01:02;15.30;94.10
3758;DHT22;1894;51.038;13.692;2023-03-23T17:03:29;15.20;94.60
3758;DHT22;1894;51.038;13.692;2023-03-23T17:05:58;15.20;95.00
3758;DHT22;1894;51.038;13.692;2023-03-23T17:08:27;15.10;95.00
3758;DHT22;1894;51.038;13.692;2023-03-23T17:10:54;15.10;95.40
3758;DHT22;1894;51.038;13.692;2023-03-23T17:13:21;15.10;95.50
3758;DHT22;1894;51.038;13.692;2023-03-23T17:15:52;15.10;95.40
3758;DHT22;1894;51.038;13.692;2023-03-23T17:18:23;15.00;95.80
3758;DHT22;1894;51.038;13.692;2023-03-23T17:20:54;14.90;95.90
3758;DHT22;1894;51.038;13.692;2023-03-23T17:23:22;14.90;95.90
3758;DHT22;1894;51.038;13.692;2023-03-23T17:25:50;14.90;96.00
3758;DHT22;1894;51.038;13.692;2023-03-23T17:28:17;15.00;96.00
3758;DHT22;1894;51.038;13.692;2023-03-23T17:30:47;14.90;96.10
3758;DHT22;1894;51.038;13.692;2023-03-23T17:33:14;14.80;96.50
3758;DHT22;1894;51.038;13.692;2023-03-23T17:35:41;14.70;97.00
3758;DHT22;1894;51.038;13.692;2023-03-23T17:38:10;14.60;97.30
3758;DHT22;1894;51.038;13.692;2023-03-23T17:40:37;14.60;97.50
3758;DHT22;1894;51.038;13.692;2023-03-23T17:43:04;14.50;97.70
3758;DHT22;1894;51.038;13.692;2023-03-23T17:45:32;14.40;98.00
3758;DHT22;1894;51.038;13.692;2023-03-23T17:47:59;14.40;98.30
3758;DHT22;1894;51.038;13.692;2023-03-23T17:50:27;14.30;98.50
3758;DHT22;1894;51.038;13.692;2023-03-23T17:52:54;14.30;99.00
3758;DHT22;1894;51.038;13.692;2023-03-23T17:55:22;14.20;99.40
3758;DHT22;1894;51.038;13.692;2023-03-23T17:57:50;14.10;99.90
3758;DHT22;1894;51.038;13.692;2023-03-23T18:00:17;14.10;99.90
3758;DHT22;1894;51.038;13.692;2023-03-23T18:02:45;14.00;99.90
3758;DHT22;1894;51.038;13.692;2023-03-23T18:05:12;13.90;99.90